sensor_id;sensor_type;location;lat;lon;timestamp;P1;durP1;ratioP1;P2;durP2;ratioP2
31402;SDS011;18039;52.188;21.024;2023-04-24T00:01:36;15.15;;;7.40;;
31402;SDS011;18039;52.188;21.024;2023-04-24T00:04:06;10.55;;;6.93;;
31402;SDS011;18039;52.188;21.024;2023-04-24T00:06:34;10.15;;;6.85;;
31402;SDS011;18039;52.188;21.024;2023-04-24T00:09:01;16.90;;;7.57;;
31402;SDS011;18039;52.188;21.024;2023-04-24T00:11:29;12.60;;;7.20;;
31402;SDS011;18039;52.188;21.024;2023-04-24T00:13:56;15.07;;;7.15;;
31402;SDS011;18039;52.188;21.024;2023-04-24T00:16:24;11.70;;;7.28;;
31402;SDS011;18039;52.188;21.024;2023-04-24T00:18:51;14.38;;;7.22;;
31402;SDS011;18039;52.188;21.024;2023-04-24T00:21:19;15.40;;;7.30;;
31402;SDS011;18039;52.188;21.024;2023-04-24T00:23:48;10.48;;;7.13;;
31402;SDS011;18039;52.188;21.024;2023-04-24T00:26:15;13.48;;;7.32;;
31402;SDS011;18039;52.188;21.024;2023-04-24T00:28:42;11.02;;;7.85;;
31402;SDS011;18039;52.188;21.024;2023-04-24T00:31:09;12.00;;;7.25;;
31402;SDS011;18039;52.188;21.024;2023-04-24T00:33:37;18.63;;;8.70;;
31402;SDS011;18039;52.188;21.024;2023-04-24T00:36:04;12.27;;;7.90;;
31402;SDS011;18039;52.188;21.024;2023-04-24T00:38:32;13.73;;;7.72;;
31402;SDS011;18039;52.188;21.024;2023-04-24T00:40:59;17.00;;;7.68;;
31402;SDS011;18039;52.188;21.024;2023-04-24T00:43:27;14.13;;;7.72;;
31402;SDS011;18039;52.188;21.024;2023-04-24T00:45:54;19.85;;;8.52;;
31402;SDS011;18039;52.188;21.024;2023-04-24T00:48:21;12.60;;;7.30;;
31402;SDS011;18039;52.188;21.024;2023-04-24T00:50:50;13.45;;;8.43;;
31402;SDS011;18039;52.188;21.024;2023-04-24T00:53:18;12.65;;;7.43;;
31402;SDS011;18039;52.188;21.024;2023-04-24T00:55:46;14.02;;;7.63;;
31402;SDS011;18039;52.188;21.024;2023-04-24T00:58:13;11.75;;;7.55;;
31402;SDS011;18039;52.188;21.024;2023-04-24T01:00:41;14.00;;;8.35;;
31402;SDS011;18039;52.188;21.024;2023-04-24T01:03:09;12.70;;;8.27;;
31402;SDS011;18039;52.188;21.024;2023-04-24T01:05:38;13.75;;;7.90;;
31402;SDS011;18039;52.188;21.024;2023-04-24T01:08:05;10.63;;;7.45;;
31402;SDS011;18039;52.188;21.024;2023-04-24T01:10:33;13.38;;;8.10;;
31402;SDS011;18039;52.188;21.024;2023-04-24T01:13:03;13.02;;;7.65;;
31402;SDS011;18039;52.188;21.024;2023-04-24T01:15:30;12.30;;;7.38;;
31402;SDS011;18039;52.188;21.024;2023-04-24T01:17:58;12.98;;;8.00;;
31402;SDS011;18039;52.188;21.024;2023-04-24T01:20:25;14.00;;;7.60;;
31402;SDS011;18039;52.188;21.024;2023-04-24T01:22:54;14.80;;;7.72;;
31402;SDS011;18039;52.188;21.024;2023-04-24T01:25:22;12.75;;;7.60;;
31402;SDS011;18039;52.188;21.024;2023-04-24T01:27:51;13.75;;;8.25;;
31402;SDS011;18039;52.188;21.024;2023-04-24T01:30:19;14.68;;;7.95;;
31402;SDS011;18039;52.188;21.024;2023-04-24T01:32:46;15.00;;;7.47;;
31402;SDS011;18039;52.188;21.024;2023-04-24T01:35:15;16.70;;;8.07;;
31402;SDS011;18039;52.188;21.024;2023-04-24T01:37:42;12.55;;;7.70;;
31402;SDS011;18039;52.188;21.024;2023-04-24T01:40:10;13.45;;;7.32;;
31402;SDS011;18039;52.188;21.024;2023-04-24T01:42:37;14.73;;;8.48;;
31402;SDS011;18039;52.188;21.024;2023-04-24T01:45:05;19.27;;;8.35;;
31402;SDS011;18039;52.188;21.024;2023-04-24T01:47:32;12.85;;;7.50;;
31402;SDS011;18039;52.188;21.024;2023-04-24T01:50:00;14.13;;;7.95;;
31402;SDS011;18039;52.188;21.024;2023-04-24T01:52:28;10.98;;;7.95;;
31402;SDS011;18039;52.188;21.024;2023-04-24T01:54:59;12.75;;;8.30;;
31402;SDS011;18039;52.188;21.024;2023-04-24T01:57:26;12.18;;;8.35;;
31402;SDS011;18039;52.188;21.024;2023-04-24T01:59:54;13.20;;;8.07;;
31402;SDS011;18039;52.188;21.024;2023-04-24T02:02:21;13.93;;;8.75;;
31402;SDS011;18039;52.188;21.024;2023-04-24T02:04:51;13.05;;;8.18;;
31402;SDS011;18039;52.188;21.024;2023-04-24T02:07:18;14.23;;;8.73;;
31402;SDS011;18039;52.188;21.024;2023-04-24T02:09:45;13.63;;;8.13;;
31402;SDS011;18039;52.188;21.024;2023-04-24T02:12:12;14.80;;;8.48;;
31402;SDS011;18039;52.188;21.024;2023-04-24T02:14:40;13.30;;;8.93;;
31402;SDS011;18039;52.188;21.024;2023-04-24T02:17:09;13.00;;;9.00;;
31402;SDS011;18039;52.188;21.024;2023-04-24T02:19:39;16.15;;;9.98;;
31402;SDS011;18039;52.188;21.024;2023-04-24T02:22:06;15.10;;;9.23;;
31402;SDS011;18039;52.188;21.024;2023-04-24T02:24:33;15.90;;;9.25;;
31402;SDS011;18039;52.188;21.024;2023-04-24T02:27:01;16.08;;;9.05;;
31402;SDS011;18039;52.188;21.024;2023-04-24T02:29:29;14.73;;;8.90;;
31402;SDS011;18039;52.188;21.024;2023-04-24T02:31:57;14.57;;;8.70;;
31402;SDS011;18039;52.188;21.024;2023-04-24T02:34:25;16.60;;;8.50;;
31402;SDS011;18039;52.188;21.024;2023-04-24T02:36:52;16.85;;;8.45;;
31402;SDS011;18039;52.188;21.024;2023-04-24T02:39:20;13.38;;;9.10;;
31402;SDS011;18039;52.188;21.024;2023-04-24T02:41:48;12.52;;;8.88;;
31402;SDS011;18039;52.188;21.024;2023-04-24T02:44:15;17.08;;;8.63;;
31402;SDS011;18039;52.188;21.024;2023-04-24T02:46:43;18.67;;;9.05;;
31402;SDS011;18039;52.188;21.024;2023-04-24T02:49:11;19.15;;;9.63;;
31402;SDS011;18039;52.188;21.024;2023-04-24T02:51:38;19.23;;;9.15;;
31402;SDS011;18039;52.188;21.024;2023-04-24T02:54:08;16.77;;;9.07;;
31402;SDS011;18039;52.188;21.024;2023-04-24T02:56:36;14.65;;;9.20;;
31402;SDS011;18039;52.188;21.024;2023-04-24T02:59:05;16.58;;;9.88;;
31402;SDS011;18039;52.188;21.024;2023-04-24T03:01:33;13.73;;;9.20;;
31402;SDS011;18039;52.188;21.024;2023-04-24T03:04:01;14.98;;;9.50;;
31402;SDS011;18039;52.188;21.024;2023-04-24T03:06:29;13.52;;;8.82;;
31402;SDS011;18039;52.188;21.024;2023-04-24T03:08:58;16.40;;;9.40;;
31402;SDS011;18039;52.188;21.024;2023-04-24T03:11:25;16.73;;;9.65;;
31402;SDS011;18039;52.188;21.024;2023-04-24T03:13:53;14.05;;;9.32;;
31402;SDS011;18039;52.188;21.024;2023-04-24T03:16:20;23.40;;;9.65;;
31402;SDS011;18039;52.188;21.024;2023-04-24T03:18:47;14.63;;;9.70;;
31402;SDS011;18039;52.188;21.024;2023-04-24T03:21:15;14.77;;;9.35;;
31402;SDS011;18039;52.188;21.024;2023-04-24T03:23:43;17.67;;;9.88;;
31402;SDS011;18039;52.188;21.024;2023-04-24T03:26:10;14.68;;;9.45;;
31402;SDS011;18039;52.188;21.024;2023-04-24T03:28:44;17.23;;;10.07;;
31402;SDS011;18039;52.188;21.024;2023-04-24T03:31:11;14.98;;;9.20;;
31402;SDS011;18039;52.188;21.024;2023-04-24T03:33:38;13.75;;;9.50;;
31402;SDS011;18039;52.188;21.024;2023-04-24T03:36:06;20.50;;;9.65;;
31402;SDS011;18039;52.188;21.024;2023-04-24T03:38:39;19.48;;;10.02;;
31402;SDS011;18039;52.188;21.024;2023-04-24T03:41:36;19.98;;;9.98;;
31402;SDS011;18039;52.188;21.024;2023-04-24T03:44:10;20.08;;;10.15;;
31402;SDS011;18039;52.188;21.024;2023-04-24T03:46:37;15.38;;;10.25;;
31402;SDS011;18039;52.188;21.024;2023-04-24T03:49:06;18.70;;;10.10;;
31402;SDS011;18039;52.188;21.024;2023-04-24T03:51:36;21.45;;;10.32;;
31402;SDS011;18039;52.188;21.024;2023-04-24T03:54:12;14.85;;;9.45;;
31402;SDS011;18039;52.188;21.024;2023-04-24T03:56:40;18.95;;;10.45;;
31402;SDS011;18039;52.188;21.024;2023-04-24T03:59:08;16.17;;;10.68;;
31402;SDS011;18039;52.188;21.024;2023-04-24T04:01:35;15.30;;;9.65;;
31402;SDS011;18039;52.188;21.024;2023-04-24T04:04:15;17.98;;;10.50;;
31402;SDS011;18039;52.188;21.024;2023-04-24T04:06:44;16.23;;;9.82;;
31402;SDS011;18039;52.188;21.024;2023-04-24T04:09:13;25.33;;;10.93;;
31402;SDS011;18039;52.188;21.024;2023-04-24T04:11:40;18.13;;;10.68;;
31402;SDS011;18039;52.188;21.024;2023-04-24T04:14:08;19.42;;;10.05;;
31402;SDS011;18039;52.188;21.024;2023-04-24T04:16:39;25.30;;;11.40;;
31402;SDS011;18039;52.188;21.024;2023-04-24T04:19:07;18.73;;;11.00;;
31402;SDS011;18039;52.188;21.024;2023-04-24T04:21:35;16.02;;;10.40;;
31402;SDS011;18039;52.188;21.024;2023-04-24T04:24:22;14.88;;;9.82;;
31402;SDS011;18039;52.188;21.024;2023-04-24T04:26:51;16.52;;;10.10;;
31402;SDS011;18039;52.188;21.024;2023-04-24T04:29:24;22.20;;;10.20;;
31402;SDS011;18039;52.188;21.024;2023-04-24T04:31:51;24.63;;;10.63;;
31402;SDS011;18039;52.188;21.024;2023-04-24T04:34:20;19.15;;;9.15;;
31402;SDS011;18039;52.188;21.024;2023-04-24T04:36:50;17.35;;;9.73;;
31402;SDS011;18039;52.188;21.024;2023-04-24T04:39:40;17.20;;;9.48;;
31402;SDS011;18039;52.188;21.024;2023-04-24T04:42:12;20.40;;;9.57;;
31402;SDS011;18039;52.188;21.024;2023-04-24T04:44:42;19.92;;;10.80;;
31402;SDS011;18039;52.188;21.024;2023-04-24T04:47:18;15.57;;;9.27;;
31402;SDS011;18039;52.188;21.024;2023-04-24T04:49:50;15.63;;;9.27;;
31402;SDS011;18039;52.188;21.024;2023-04-24T04:52:22;16.45;;;9.38;;
31402;SDS011;18039;52.188;21.024;2023-04-24T04:55:00;12.77;;;8.57;;
31402;SDS011;18039;52.188;21.024;2023-04-24T04:57:47;14.57;;;9.18;;
31402;SDS011;18039;52.188;21.024;2023-04-24T05:00:15;18.20;;;9.52;;
31402;SDS011;18039;52.188;21.024;2023-04-24T05:02:48;13.20;;;8.80;;
31402;SDS011;18039;52.188;21.024;2023-04-24T05:05:16;15.60;;;8.45;;
31402;SDS011;18039;52.188;21.024;2023-04-24T05:07:44;18.80;;;9.57;;
31402;SDS011;18039;52.188;21.024;2023-04-24T05:10:12;17.73;;;9.13;;
31402;SDS011;18039;52.188;21.024;2023-04-24T05:12:39;17.73;;;9.05;;
31402;SDS011;18039;52.188;21.024;2023-04-24T05:15:06;14.75;;;8.38;;
31402;SDS011;18039;52.188;21.024;2023-04-24T05:17:34;15.27;;;9.60;;
31402;SDS011;18039;52.188;21.024;2023-04-24T05:20:02;17.10;;;9.88;;
31402;SDS011;18039;52.188;21.024;2023-04-24T05:22:32;15.70;;;8.57;;
31402;SDS011;18039;52.188;21.024;2023-04-24T05:25:00;16.25;;;10.00;;
31402;SDS011;18039;52.188;21.024;2023-04-24T05:27:36;19.70;;;9.77;;
31402;SDS011;18039;52.188;21.024;2023-04-24T05:30:10;16.88;;;9.70;;
31402;SDS011;18039;52.188;21.024;2023-04-24T05:32:37;16.35;;;9.60;;
31402;SDS011;18039;52.188;21.024;2023-04-24T05:35:05;18.55;;;9.38;;
31402;SDS011;18039;52.188;21.024;2023-04-24T05:37:32;16.98;;;9.63;;
31402;SDS011;18039;52.188;21.024;2023-04-24T05:39:59;16.08;;;9.13;;
31402;SDS011;18039;52.188;21.024;2023-04-24T05:42:27;18.17;;;9.88;;
31402;SDS011;18039;52.188;21.024;2023-04-24T05:44:56;15.48;;;9.30;;
31402;SDS011;18039;52.188;21.024;2023-04-24T05:47:23;17.83;;;9.55;;
31402;SDS011;18039;52.188;21.024;2023-04-24T05:49:53;19.17;;;9.85;;
31402;SDS011;18039;52.188;21.024;2023-04-24T05:52:20;14.73;;;9.15;;
31402;SDS011;18039;52.188;21.024;2023-04-24T05:54:48;13.88;;;8.75;;
31402;SDS011;18039;52.188;21.024;2023-04-24T05:57:20;22.63;;;11.20;;
31402;SDS011;18039;52.188;21.024;2023-04-24T05:59:52;27.98;;;12.98;;
31402;SDS011;18039;52.188;21.024;2023-04-24T06:02:20;20.23;;;10.20;;
31402;SDS011;18039;52.188;21.024;2023-04-24T06:04:49;19.17;;;10.07;;
31402;SDS011;18039;52.188;21.024;2023-04-24T06:07:17;18.38;;;10.57;;
31402;SDS011;18039;52.188;21.024;2023-04-24T06:09:44;21.38;;;10.00;;
31402;SDS011;18039;52.188;21.024;2023-04-24T06:12:12;16.45;;;9.75;;
31402;SDS011;18039;52.188;21.024;2023-04-24T06:14:57;20.75;;;10.23;;
31402;SDS011;18039;52.188;21.024;2023-04-24T06:17:49;19.95;;;9.80;;
31402;SDS011;18039;52.188;21.024;2023-04-24T06:20:18;19.65;;;10.02;;
31402;SDS011;18039;52.188;21.024;2023-04-24T06:22:45;18.15;;;9.40;;
31402;SDS011;18039;52.188;21.024;2023-04-24T06:25:12;15.25;;;9.48;;
31402;SDS011;18039;52.188;21.024;2023-04-24T06:27:39;21.77;;;9.68;;
31402;SDS011;18039;52.188;21.024;2023-04-24T06:30:07;25.30;;;9.50;;
31402;SDS011;18039;52.188;21.024;2023-04-24T06:32:35;19.85;;;10.00;;
31402;SDS011;18039;52.188;21.024;2023-04-24T06:35:03;15.60;;;8.95;;
31402;SDS011;18039;52.188;21.024;2023-04-24T06:37:30;18.85;;;10.25;;
31402;SDS011;18039;52.188;21.024;2023-04-24T06:39:59;13.07;;;8.98;;
31402;SDS011;18039;52.188;21.024;2023-04-24T06:42:25;15.27;;;9.07;;
31402;SDS011;18039;52.188;21.024;2023-04-24T06:44:55;15.73;;;8.75;;
31402;SDS011;18039;52.188;21.024;2023-04-24T06:47:22;18.05;;;9.13;;
31402;SDS011;18039;52.188;21.024;2023-04-24T06:49:50;17.77;;;9.10;;
31402;SDS011;18039;52.188;21.024;2023-04-24T06:52:19;15.60;;;9.20;;
31402;SDS011;18039;52.188;21.024;2023-04-24T06:54:46;13.77;;;9.60;;
31402;SDS011;18039;52.188;21.024;2023-04-24T06:57:14;15.38;;;8.90;;
31402;SDS011;18039;52.188;21.024;2023-04-24T06:59:42;13.57;;;8.93;;
31402;SDS011;18039;52.188;21.024;2023-04-24T07:02:10;20.48;;;10.02;;
31402;SDS011;18039;52.188;21.024;2023-04-24T07:04:37;14.60;;;9.63;;
31402;SDS011;18039;52.188;21.024;2023-04-24T07:07:05;17.23;;;8.88;;
31402;SDS011;18039;52.188;21.024;2023-04-24T07:09:33;15.70;;;9.30;;
31402;SDS011;18039;52.188;21.024;2023-04-24T07:12:05;16.23;;;8.73;;
31402;SDS011;18039;52.188;21.024;2023-04-24T07:14:34;23.50;;;9.93;;
31402;SDS011;18039;52.188;21.024;2023-04-24T07:17:02;19.30;;;9.55;;
31402;SDS011;18039;52.188;21.024;2023-04-24T07:19:31;19.45;;;8.90;;
31402;SDS011;18039;52.188;21.024;2023-04-24T07:22:03;21.02;;;9.57;;
31402;SDS011;18039;52.188;21.024;2023-04-24T07:24:30;16.00;;;9.23;;
31402;SDS011;18039;52.188;21.024;2023-04-24T07:26:59;17.30;;;9.02;;
31402;SDS011;18039;52.188;21.024;2023-04-24T07:29:30;19.27;;;9.05;;
31402;SDS011;18039;52.188;21.024;2023-04-24T07:31:57;16.17;;;8.80;;
31402;SDS011;18039;52.188;21.024;2023-04-24T07:34:24;15.00;;;8.80;;
31402;SDS011;18039;52.188;21.024;2023-04-24T07:36:51;17.38;;;9.80;;
31402;SDS011;18039;52.188;21.024;2023-04-24T07:39:19;16.38;;;8.90;;
31402;SDS011;18039;52.188;21.024;2023-04-24T07:41:46;14.90;;;8.82;;
31402;SDS011;18039;52.188;21.024;2023-04-24T07:44:13;16.42;;;9.75;;
31402;SDS011;18039;52.188;21.024;2023-04-24T07:46:40;16.88;;;8.75;;
31402;SDS011;18039;52.188;21.024;2023-04-24T07:49:08;16.65;;;8.88;;
31402;SDS011;18039;52.188;21.024;2023-04-24T07:51:40;14.52;;;8.70;;
31402;SDS011;18039;52.188;21.024;2023-04-24T07:54:08;12.00;;;7.97;;
31402;SDS011;18039;52.188;21.024;2023-04-24T07:56:35;16.20;;;8.18;;
31402;SDS011;18039;52.188;21.024;2023-04-24T07:59:06;12.18;;;7.97;;
31402;SDS011;18039;52.188;21.024;2023-04-24T08:01:33;16.77;;;8.88;;
31402;SDS011;18039;52.188;21.024;2023-04-24T08:04:00;15.65;;;8.85;;
31402;SDS011;18039;52.188;21.024;2023-04-24T08:06:28;14.40;;;7.75;;
31402;SDS011;18039;52.188;21.024;2023-04-24T08:08:57;14.88;;;7.78;;
31402;SDS011;18039;52.188;21.024;2023-04-24T08:11:25;15.00;;;7.43;;
31402;SDS011;18039;52.188;21.024;2023-04-24T08:13:53;18.33;;;7.80;;
31402;SDS011;18039;52.188;21.024;2023-04-24T08:16:21;15.63;;;7.68;;
31402;SDS011;18039;52.188;21.024;2023-04-24T08:18:51;11.93;;;7.72;;
31402;SDS011;18039;52.188;21.024;2023-04-24T08:21:19;12.05;;;7.93;;
31402;SDS011;18039;52.188;21.024;2023-04-24T08:23:48;14.50;;;7.15;;
31402;SDS011;18039;52.188;21.024;2023-04-24T08:26:14;17.35;;;7.63;;
31402;SDS011;18039;52.188;21.024;2023-04-24T08:28:42;14.15;;;7.88;;
31402;SDS011;18039;52.188;21.024;2023-04-24T08:31:09;17.25;;;7.68;;
31402;SDS011;18039;52.188;21.024;2023-04-24T08:33:37;12.82;;;8.02;;
31402;SDS011;18039;52.188;21.024;2023-04-24T08:36:04;15.68;;;7.50;;
31402;SDS011;18039;52.188;21.024;2023-04-24T08:38:33;14.35;;;7.43;;
31402;SDS011;18039;52.188;21.024;2023-04-24T08:41:01;13.80;;;8.18;;
31402;SDS011;18039;52.188;21.024;2023-04-24T08:43:28;13.77;;;7.68;;
31402;SDS011;18039;52.188;21.024;2023-04-24T08:45:56;26.08;;;7.55;;
31402;SDS011;18039;52.188;21.024;2023-04-24T08:48:24;15.30;;;7.28;;
31402;SDS011;18039;52.188;21.024;2023-04-24T08:50:58;15.45;;;7.70;;
31402;SDS011;18039;52.188;21.024;2023-04-24T08:53:26;13.52;;;7.60;;
31402;SDS011;18039;52.188;21.024;2023-04-24T08:55:54;11.35;;;7.32;;
31402;SDS011;18039;52.188;21.024;2023-04-24T08:58:23;16.02;;;7.28;;
31402;SDS011;18039;52.188;21.024;2023-04-24T09:00:54;12.70;;;7.72;;
31402;SDS011;18039;52.188;21.024;2023-04-24T09:03:22;16.90;;;7.68;;
31402;SDS011;18039;52.188;21.024;2023-04-24T09:05:50;12.60;;;7.45;;
31402;SDS011;18039;52.188;21.024;2023-04-24T09:08:19;16.95;;;7.38;;
31402;SDS011;18039;52.188;21.024;2023-04-24T09:10:48;16.05;;;7.32;;
31402;SDS011;18039;52.188;21.024;2023-04-24T09:13:17;15.63;;;7.45;;
31402;SDS011;18039;52.188;21.024;2023-04-24T09:15:46;15.45;;;7.25;;
31402;SDS011;18039;52.188;21.024;2023-04-24T09:18:14;11.88;;;7.13;;
31402;SDS011;18039;52.188;21.024;2023-04-24T09:21:01;14.93;;;6.88;;
31402;SDS011;18039;52.188;21.024;2023-04-24T09:23:30;16.35;;;7.00;;
31402;SDS011;18039;52.188;21.024;2023-04-24T09:25:58;15.13;;;7.43;;
31402;SDS011;18039;52.188;21.024;2023-04-24T09:28:30;11.25;;;6.70;;
31402;SDS011;18039;52.188;21.024;2023-04-24T09:31:15;13.55;;;6.80;;
31402;SDS011;18039;52.188;21.024;2023-04-24T09:33:56;12.50;;;6.63;;
31402;SDS011;18039;52.188;21.024;2023-04-24T09:36:32;8.43;;;5.38;;
31402;SDS011;18039;52.188;21.024;2023-04-24T09:39:05;14.27;;;6.32;;
31402;SDS011;18039;52.188;21.024;2023-04-24T09:41:46;11.23;;;5.50;;
31402;SDS011;18039;52.188;21.024;2023-04-24T09:44:19;9.40;;;5.25;;
31402;SDS011;18039;52.188;21.024;2023-04-24T09:46:53;9.40;;;5.18;;
31402;SDS011;18039;52.188;21.024;2023-04-24T09:49:23;5.70;;;3.73;;
31402;SDS011;18039;52.188;21.024;2023-04-24T09:52:07;10.85;;;5.05;;
31402;SDS011;18039;52.188;21.024;2023-04-24T09:54:38;9.82;;;4.53;;
31402;SDS011;18039;52.188;21.024;2023-04-24T09:57:09;9.43;;;4.93;;
31402;SDS011;18039;52.188;21.024;2023-04-24T09:59:41;11.15;;;6.47;;
31402;SDS011;18039;52.188;21.024;2023-04-24T10:02:17;18.23;;;7.53;;
31402;SDS011;18039;52.188;21.024;2023-04-24T10:04:55;15.75;;;7.35;;
31402;SDS011;18039;52.188;21.024;2023-04-24T10:07:25;12.20;;;7.68;;
31402;SDS011;18039;52.188;21.024;2023-04-24T10:09:53;13.32;;;6.35;;
31402;SDS011;18039;52.188;21.024;2023-04-24T10:12:21;11.57;;;6.05;;
31402;SDS011;18039;52.188;21.024;2023-04-24T10:14:49;13.38;;;6.50;;
31402;SDS011;18039;52.188;21.024;2023-04-24T10:17:17;11.45;;;7.03;;
31402;SDS011;18039;52.188;21.024;2023-04-24T10:19:47;10.93;;;6.57;;
31402;SDS011;18039;52.188;21.024;2023-04-24T10:22:15;16.83;;;6.40;;
31402;SDS011;18039;52.188;21.024;2023-04-24T10:24:43;13.10;;;6.70;;
31402;SDS011;18039;52.188;21.024;2023-04-24T10:27:12;18.77;;;6.82;;
31402;SDS011;18039;52.188;21.024;2023-04-24T10:29:43;11.03;;;6.90;;
31402;SDS011;18039;52.188;21.024;2023-04-24T10:32:11;11.55;;;6.72;;
31402;SDS011;18039;52.188;21.024;2023-04-24T10:34:39;8.63;;;6.05;;
31402;SDS011;18039;52.188;21.024;2023-04-24T10:37:06;13.40;;;6.40;;
31402;SDS011;18039;52.188;21.024;2023-04-24T10:39:34;9.77;;;5.90;;
31402;SDS011;18039;52.188;21.024;2023-04-24T10:42:02;12.27;;;5.75;;
31402;SDS011;18039;52.188;21.024;2023-04-24T10:44:35;11.52;;;5.85;;
31402;SDS011;18039;52.188;21.024;2023-04-24T10:47:03;11.43;;;5.68;;
31402;SDS011;18039;52.188;21.024;2023-04-24T10:49:31;14.73;;;5.65;;
31402;SDS011;18039;52.188;21.024;2023-04-24T10:52:02;7.28;;;4.85;;
31402;SDS011;18039;52.188;21.024;2023-04-24T10:54:44;11.65;;;5.80;;
31402;SDS011;18039;52.188;21.024;2023-04-24T10:59:52;12.13;;;5.75;;
31402;SDS011;18039;52.188;21.024;2023-04-24T11:02:40;13.45;;;6.13;;
31402;SDS011;18039;52.188;21.024;2023-04-24T11:10:40;11.98;;;6.07;;
31402;SDS011;18039;52.188;21.024;2023-04-24T11:13:20;10.45;;;5.57;;
31402;SDS011;18039;52.188;21.024;2023-04-24T11:21:39;11.98;;;5.63;;
31402;SDS011;18039;52.188;21.024;2023-04-24T11:27:24;7.47;;;4.55;;
31402;SDS011;18039;52.188;21.024;2023-04-24T11:32:27;10.23;;;5.22;;
31402;SDS011;18039;52.188;21.024;2023-04-24T11:40:06;13.38;;;4.88;;
31402;SDS011;18039;52.188;21.024;2023-04-24T11:42:36;7.30;;;4.97;;
31402;SDS011;18039;52.188;21.024;2023-04-24T11:45:08;9.82;;;4.65;;
31402;SDS011;18039;52.188;21.024;2023-04-24T11:47:38;7.75;;;4.80;;
31402;SDS011;18039;52.188;21.024;2023-04-24T11:50:11;10.18;;;5.30;;
31402;SDS011;18039;52.188;21.024;2023-04-24T11:52:40;8.43;;;4.68;;
31402;SDS011;18039;52.188;21.024;2023-04-24T11:55:12;8.63;;;4.85;;
31402;SDS011;18039;52.188;21.024;2023-04-24T11:57:53;13.15;;;5.18;;
31402;SDS011;18039;52.188;21.024;2023-04-24T12:00:24;8.70;;;4.75;;
31402;SDS011;18039;52.188;21.024;2023-04-24T12:03:06;8.98;;;5.03;;
31402;SDS011;18039;52.188;21.024;2023-04-24T12:05:35;7.97;;;5.18;;
31402;SDS011;18039;52.188;21.024;2023-04-24T12:08:03;6.03;;;4.63;;
31402;SDS011;18039;52.188;21.024;2023-04-24T12:10:32;9.60;;;5.32;;
31402;SDS011;18039;52.188;21.024;2023-04-24T12:13:01;10.68;;;5.13;;
31402;SDS011;18039;52.188;21.024;2023-04-24T12:15:29;11.68;;;4.82;;
31402;SDS011;18039;52.188;21.024;2023-04-24T12:17:56;10.75;;;5.32;;
31402;SDS011;18039;52.188;21.024;2023-04-24T12:20:28;8.27;;;5.53;;
31402;SDS011;18039;52.188;21.024;2023-04-24T12:22:58;6.07;;;5.07;;
31402;SDS011;18039;52.188;21.024;2023-04-24T12:25:33;11.43;;;5.45;;
31402;SDS011;18039;52.188;21.024;2023-04-24T12:30:33;9.25;;;5.22;;
31402;SDS011;18039;52.188;21.024;2023-04-24T12:33:02;9.30;;;4.60;;
31402;SDS011;18039;52.188;21.024;2023-04-24T12:35:31;9.40;;;6.07;;
31402;SDS011;18039;52.188;21.024;2023-04-24T12:38:07;10.95;;;5.20;;
31402;SDS011;18039;52.188;21.024;2023-04-24T12:40:35;11.55;;;5.40;;
31402;SDS011;18039;52.188;21.024;2023-04-24T12:43:12;14.65;;;5.43;;
31402;SDS011;18039;52.188;21.024;2023-04-24T12:45:43;28.83;;;5.50;;
31402;SDS011;18039;52.188;21.024;2023-04-24T12:48:12;30.25;;;5.70;;
31402;SDS011;18039;52.188;21.024;2023-04-24T12:50:41;27.52;;;4.85;;
31402;SDS011;18039;52.188;21.024;2023-04-24T12:55:39;12.32;;;4.20;;
31402;SDS011;18039;52.188;21.024;2023-04-24T12:58:07;23.27;;;5.10;;
31402;SDS011;18039;52.188;21.024;2023-04-24T13:00:35;23.42;;;4.15;;
31402;SDS011;18039;52.188;21.024;2023-04-24T13:03:03;20.80;;;4.00;;
31402;SDS011;18039;52.188;21.024;2023-04-24T13:05:30;14.23;;;3.42;;
31402;SDS011;18039;52.188;21.024;2023-04-24T13:07:58;15.45;;;3.42;;
31402;SDS011;18039;52.188;21.024;2023-04-24T13:10:25;13.93;;;4.68;;
31402;SDS011;18039;52.188;21.024;2023-04-24T13:12:52;8.18;;;3.63;;
31402;SDS011;18039;52.188;21.024;2023-04-24T13:15:20;10.48;;;4.00;;
31402;SDS011;18039;52.188;21.024;2023-04-24T13:17:48;9.20;;;3.20;;
31402;SDS011;18039;52.188;21.024;2023-04-24T13:20:16;14.32;;;3.85;;
31402;SDS011;18039;52.188;21.024;2023-04-24T13:22:44;11.93;;;4.03;;
31402;SDS011;18039;52.188;21.024;2023-04-24T13:25:11;6.18;;;3.92;;
31402;SDS011;18039;52.188;21.024;2023-04-24T13:27:38;14.57;;;4.90;;
31402;SDS011;18039;52.188;21.024;2023-04-24T13:30:06;13.90;;;3.75;;
31402;SDS011;18039;52.188;21.024;2023-04-24T13:32:34;18.20;;;5.00;;
31402;SDS011;18039;52.188;21.024;2023-04-24T13:35:02;8.50;;;3.83;;
31402;SDS011;18039;52.188;21.024;2023-04-24T13:37:30;6.22;;;3.38;;
31402;SDS011;18039;52.188;21.024;2023-04-24T13:39:57;11.40;;;4.22;;
31402;SDS011;18039;52.188;21.024;2023-04-24T13:42:24;11.30;;;4.13;;
31402;SDS011;18039;52.188;21.024;2023-04-24T13:44:52;11.25;;;3.67;;
31402;SDS011;18039;52.188;21.024;2023-04-24T13:47:19;8.10;;;4.00;;
31402;SDS011;18039;52.188;21.024;2023-04-24T13:49:46;6.20;;;3.47;;
31402;SDS011;18039;52.188;21.024;2023-04-24T13:52:14;6.10;;;3.38;;
31402;SDS011;18039;52.188;21.024;2023-04-24T13:54:41;6.15;;;3.08;;
31402;SDS011;18039;52.188;21.024;2023-04-24T13:57:09;6.72;;;3.30;;
31402;SDS011;18039;52.188;21.024;2023-04-24T13:59:36;9.57;;;3.40;;
31402;SDS011;18039;52.188;21.024;2023-04-24T14:02:04;4.10;;;3.03;;
31402;SDS011;18039;52.188;21.024;2023-04-24T14:04:33;9.77;;;3.40;;
31402;SDS011;18039;52.188;21.024;2023-04-24T14:07:01;6.30;;;3.90;;
31402;SDS011;18039;52.188;21.024;2023-04-24T14:09:28;3.78;;;3.05;;
31402;SDS011;18039;52.188;21.024;2023-04-24T14:11:56;9.77;;;4.22;;
31402;SDS011;18039;52.188;21.024;2023-04-24T14:14:23;6.90;;;3.58;;
31402;SDS011;18039;52.188;21.024;2023-04-24T14:16:50;7.13;;;3.45;;
31402;SDS011;18039;52.188;21.024;2023-04-24T14:19:18;8.80;;;3.35;;
31402;SDS011;18039;52.188;21.024;2023-04-24T14:21:45;7.95;;;3.20;;
31402;SDS011;18039;52.188;21.024;2023-04-24T14:24:12;8.23;;;3.80;;
31402;SDS011;18039;52.188;21.024;2023-04-24T14:26:40;6.07;;;3.95;;
31402;SDS011;18039;52.188;21.024;2023-04-24T14:29:07;7.00;;;3.63;;
31402;SDS011;18039;52.188;21.024;2023-04-24T14:31:41;4.38;;;3.35;;
31402;SDS011;18039;52.188;21.024;2023-04-24T14:34:09;6.70;;;3.35;;
31402;SDS011;18039;52.188;21.024;2023-04-24T14:36:37;6.78;;;3.45;;
31402;SDS011;18039;52.188;21.024;2023-04-24T14:39:04;6.57;;;3.40;;
31402;SDS011;18039;52.188;21.024;2023-04-24T14:41:33;8.80;;;4.03;;
31402;SDS011;18039;52.188;21.024;2023-04-24T14:44:06;6.68;;;3.20;;
31402;SDS011;18039;52.188;21.024;2023-04-24T14:46:33;7.63;;;3.30;;
31402;SDS011;18039;52.188;21.024;2023-04-24T14:49:00;7.63;;;3.75;;
31402;SDS011;18039;52.188;21.024;2023-04-24T14:51:28;7.78;;;3.40;;
31402;SDS011;18039;52.188;21.024;2023-04-24T14:53:55;6.13;;;3.25;;
31402;SDS011;18039;52.188;21.024;2023-04-24T14:56:23;8.60;;;3.67;;
31402;SDS011;18039;52.188;21.024;2023-04-24T14:58:50;5.50;;;3.60;;
31402;SDS011;18039;52.188;21.024;2023-04-24T15:01:18;7.70;;;3.58;;
31402;SDS011;18039;52.188;21.024;2023-04-24T15:03:45;7.57;;;3.47;;
31402;SDS011;18039;52.188;21.024;2023-04-24T15:06:13;6.53;;;3.70;;